sensor_id;sensor_type;location;lat;lon;timestamp;P1;P2;P0
76304;PMS7003;65111;50.536;19.204;2022-11-15T00:02:07;3.75;3.50;1.50
76304;PMS7003;65111;50.536;19.204;2022-11-15T00:04:33;4.00;4.00;2.00
76304;PMS7003;65111;50.536;19.204;2022-11-15T00:06:59;15.00;12.00;9.00
76304;PMS7003;65111;50.536;19.204;2022-11-15T00:09:25;12.75;8.50;6.00
76304;PMS7003;65111;50.536;19.204;2022-11-15T00:11:52;12.75;12.00;7.75
76304;PMS7003;65111;50.536;19.204;2022-11-15T00:14:18;7.00;7.00;6.00
76304;PMS7003;65111;50.536;19.204;2022-11-15T00:16:44;7.50;7.50;5.50
76304;PMS7003;65111;50.536;19.204;2022-11-15T00:19:11;10.50;10.50;7.00
76304;PMS7003;65111;50.536;19.204;2022-11-15T00:21:37;11.75;11.50;8.00
76304;PMS7003;65111;50.536;19.204;2022-11-15T00:24:04;12.00;8.50;6.25
76304;PMS7003;65111;50.536;19.204;2022-11-15T00:26:31;12.50;12.00;7.00
76304;PMS7003;65111;50.536;19.204;2022-11-15T00:28:57;7.00;7.00;5.50
76304;PMS7003;65111;50.536;19.204;2022-11-15T00:31:24;14.00;11.75;7.50
76304;PMS7003;65111;50.536;19.204;2022-11-15T00:33:50;6.75;6.00;4.00
76304;PMS7003;65111;50.536;19.204;2022-11-15T00:36:16;7.50;6.25;3.25
76304;PMS7003;65111;50.536;19.204;2022-11-15T00:38:42;10.50;9.25;6.00
76304;PMS7003;65111;50.536;19.204;2022-11-15T00:41:09;10.00;10.00;6.00
76304;PMS7003;65111;50.536;19.204;2022-11-15T00:43:35;12.25;9.75;6.00
76304;PMS7003;65111;50.536;19.204;2022-11-15T00:46:02;8.00;8.00;6.00
76304;PMS7003;65111;50.536;19.204;2022-11-15T00:48:28;12.50;10.00;7.50
76304;PMS7003;65111;50.536;19.204;2022-11-15T00:50:55;6.50;6.50;4.00
76304;PMS7003;65111;50.536;19.204;2022-11-15T00:53:21;7.25;6.00;3.75
76304;PMS7003;65111;50.536;19.204;2022-11-15T00:55:47;10.75;8.00;6.50
76304;PMS7003;65111;50.536;19.204;2022-11-15T00:58:14;13.75;6.00;5.00
76304;PMS7003;65111;50.536;19.204;2022-11-15T01:00:40;11.25;9.25;6.75
76304;PMS7003;65111;50.536;19.204;2022-11-15T01:03:06;4.00;1.50;0.00
76304;PMS7003;65111;50.536;19.204;2022-11-15T01:05:33;8.50;6.00;4.00
76304;PMS7003;65111;50.536;19.204;2022-11-15T01:07:59;7.00;4.00;3.00
76304;PMS7003;65111;50.536;19.204;2022-11-15T01:10:25;5.25;5.25;3.25
76304;PMS7003;65111;50.536;19.204;2022-11-15T01:12:52;5.50;4.00;1.50
76304;PMS7003;65111;50.536;19.204;2022-11-15T01:15:18;8.25;8.00;6.25
76304;PMS7003;65111;50.536;19.204;2022-11-15T01:17:44;8.50;6.00;4.50
76304;PMS7003;65111;50.536;19.204;2022-11-15T01:20:11;11.00;9.25;5.00
76304;PMS7003;65111;50.536;19.204;2022-11-15T01:22:38;12.50;12.00;7.50
76304;PMS7003;65111;50.536;19.204;2022-11-15T01:25:04;10.50;10.00;6.75
76304;PMS7003;65111;50.536;19.204;2022-11-15T01:27:31;9.00;6.75;5.00
76304;PMS7003;65111;50.536;19.204;2022-11-15T01:29:57;12.00;12.00;7.00
76304;PMS7003;65111;50.536;19.204;2022-11-15T01:32:24;8.50;8.00;6.50
76304;PMS7003;65111;50.536;19.204;2022-11-15T01:34:50;7.25;4.50;3.75
76304;PMS7003;65111;50.536;19.204;2022-11-15T01:37:16;8.50;6.50;4.50
76304;PMS7003;65111;50.536;19.204;2022-11-15T01:39:43;12.75;10.00;6.50
76304;PMS7003;65111;50.536;19.204;2022-11-15T01:42:12;7.00;7.00;6.00
76304;PMS7003;65111;50.536;19.204;2022-11-15T01:44:41;13.25;12.25;8.00
76304;PMS7003;65111;50.536;19.204;2022-11-15T01:50:04;8.25;8.25;5.00
76304;PMS7003;65111;50.536;19.204;2022-11-15T01:52:32;8.00;8.00;6.00
76304;PMS7003;65111;50.536;19.204;2022-11-15T01:55:08;10.00;10.00;7.50
76304;PMS7003;65111;50.536;19.204;2022-11-15T01:57:36;13.25;8.50;5.50
76304;PMS7003;65111;50.536;19.204;2022-11-15T02:00:05;20.50;17.50;12.25
76304;PMS7003;65111;50.536;19.204;2022-11-15T02:02:32;12.50;11.50;9.00
76304;PMS7003;65111;50.536;19.204;2022-11-15T02:05:00;20.00;12.75;7.50
76304;PMS7003;65111;50.536;19.204;2022-11-15T02:07:26;13.00;10.00;7.50
76304;PMS7003;65111;50.536;19.204;2022-11-15T02:09:55;9.75;9.00;6.25
76304;PMS7003;65111;50.536;19.204;2022-11-15T02:12:25;10.00;6.00;6.00
76304;PMS7003;65111;50.536;19.204;2022-11-15T02:14:52;11.00;11.00;7.50
76304;PMS7003;65111;50.536;19.204;2022-11-15T02:28:58;13.00;11.50;7.50
76304;PMS7003;65111;50.536;19.204;2022-11-15T02:31:32;9.00;9.00;6.00
76304;PMS7003;65111;50.536;19.204;2022-11-15T02:37:00;12.25;12.00;7.00
76304;PMS7003;65111;50.536;19.204;2022-11-15T02:42:02;13.25;10.50;7.00
76304;PMS7003;65111;50.536;19.204;2022-11-15T02:44:33;19.00;15.50;10.00
76304;PMS7003;65111;50.536;19.204;2022-11-15T02:47:06;16.00;11.00;8.75
76304;PMS7003;65111;50.536;19.204;2022-11-15T02:49:57;13.25;13.25;7.00
76304;PMS7003;65111;50.536;19.204;2022-11-15T02:52:40;16.25;14.50;9.00
76304;PMS7003;65111;50.536;19.204;2022-11-15T02:55:24;14.25;12.75;9.75
76304;PMS7003;65111;50.536;19.204;2022-11-15T03:00:47;12.75;10.00;7.50
76304;PMS7003;65111;50.536;19.204;2022-11-15T03:09:08;12.50;11.25;8.75
76304;PMS7003;65111;50.536;19.204;2022-11-15T03:11:50;12.00;12.00;7.00
76304;PMS7003;65111;50.536;19.204;2022-11-15T03:19:52;9.75;9.50;7.00
76304;PMS7003;65111;50.536;19.204;2022-11-15T03:22:22;13.50;9.00;7.50
76304;PMS7003;65111;50.536;19.204;2022-11-15T03:24:56;9.50;9.25;6.00
76304;PMS7003;65111;50.536;19.204;2022-11-15T03:27:25;12.75;7.00;5.00
76304;PMS7003;65111;50.536;19.204;2022-11-15T03:29:59;12.75;12.25;7.00
76304;PMS7003;65111;50.536;19.204;2022-11-15T03:32:25;11.50;11.50;7.50
76304;PMS7003;65111;50.536;19.204;2022-11-15T03:35:07;12.75;12.00;9.00
76304;PMS7003;65111;50.536;19.204;2022-11-15T03:40:06;19.00;13.00;10.50
76304;PMS7003;65111;50.536;19.204;2022-11-15T03:42:45;15.00;10.00;7.00
76304;PMS7003;65111;50.536;19.204;2022-11-15T03:47:47;17.75;14.50;8.50
76304;PMS7003;65111;50.536;19.204;2022-11-15T03:50:17;12.00;10.50;8.00
76304;PMS7003;65111;50.536;19.204;2022-11-15T03:52:45;10.50;10.50;7.50
76304;PMS7003;65111;50.536;19.204;2022-11-15T03:55:14;16.50;9.75;6.75
76304;PMS7003;65111;50.536;19.204;2022-11-15T03:57:43;14.50;12.00;8.50
76304;PMS7003;65111;50.536;19.204;2022-11-15T04:00:09;14.00;13.25;7.25
76304;PMS7003;65111;50.536;19.204;2022-11-15T04:02:36;11.50;10.50;8.00
76304;PMS7003;65111;50.536;19.204;2022-11-15T04:05:03;12.50;12.00;8.50
76304;PMS7003;65111;50.536;19.204;2022-11-15T04:07:30;8.50;6.00;3.75
76304;PMS7003;65111;50.536;19.204;2022-11-15T04:09:56;15.50;13.50;7.00
76304;PMS7003;65111;50.536;19.204;2022-11-15T04:12:32;8.00;8.00;5.50
76304;PMS7003;65111;50.536;19.204;2022-11-15T04:15:05;12.00;11.00;6.00
76304;PMS7003;65111;50.536;19.204;2022-11-15T04:17:38;16.50;10.00;6.00
76304;PMS7003;65111;50.536;19.204;2022-11-15T04:23:01;6.25;6.25;4.00
76304;PMS7003;65111;50.536;19.204;2022-11-15T04:25:49;9.50;8.75;6.00
76304;PMS7003;65111;50.536;19.204;2022-11-15T04:28:17;14.00;14.00;10.25
76304;PMS7003;65111;50.536;19.204;2022-11-15T04:30:43;6.50;6.00;4.00
76304;PMS7003;65111;50.536;19.204;2022-11-15T04:33:10;10.00;10.00;6.00
76304;PMS7003;65111;50.536;19.204;2022-11-15T04:35:36;9.00;9.00;4.00
76304;PMS7003;65111;50.536;19.204;2022-11-15T04:38:03;6.00;6.00;4.50
76304;PMS7003;65111;50.536;19.204;2022-11-15T04:40:31;8.00;8.00;5.00
76304;PMS7003;65111;50.536;19.204;2022-11-15T04:42:58;9.25;9.25;6.25
76304;PMS7003;65111;50.536;19.204;2022-11-15T04:45:24;6.75;6.75;6.00
76304;PMS7003;65111;50.536;19.204;2022-11-15T04:47:50;11.75;7.50;5.00
76304;PMS7003;65111;50.536;19.204;2022-11-15T04:50:16;9.75;9.00;5.00
76304;PMS7003;65111;50.536;19.204;2022-11-15T04:52:48;5.00;3.00;2.50
76304;PMS7003;65111;50.536;19.204;2022-11-15T04:55:18;5.00;5.00;3.75
76304;PMS7003;65111;50.536;19.204;2022-11-15T04:57:44;7.50;5.50;3.50
76304;PMS7003;65111;50.536;19.204;2022-11-15T05:00:12;14.00;8.50;6.00
76304;PMS7003;65111;50.536;19.204;2022-11-15T05:02:40;6.00;6.00;3.75
76304;PMS7003;65111;50.536;19.204;2022-11-15T05:05:25;5.00;3.50;2.00
76304;PMS7003;65111;50.536;19.204;2022-11-15T05:07:51;6.25;6.25;4.00
76304;PMS7003;65111;50.536;19.204;2022-11-15T05:10:17;5.50;5.50;4.50
76304;PMS7003;65111;50.536;19.204;2022-11-15T05:12:44;9.00;6.00;4.00
76304;PMS7003;65111;50.536;19.204;2022-11-15T05:15:12;4.50;4.50;4.00
76304;PMS7003;65111;50.536;19.204;2022-11-15T05:17:38;8.50;7.50;6.00
76304;PMS7003;65111;50.536;19.204;2022-11-15T05:20:04;6.00;6.00;4.00
76304;PMS7003;65111;50.536;19.204;2022-11-15T05:22:32;9.75;9.00;6.00
76304;PMS7003;65111;50.536;19.204;2022-11-15T05:24:58;13.00;9.25;6.75
76304;PMS7003;65111;50.536;19.204;2022-11-15T05:27:24;9.25;7.50;4.50
76304;PMS7003;65111;50.536;19.204;2022-11-15T05:29:51;5.50;4.00;3.00
76304;PMS7003;65111;50.536;19.204;2022-11-15T05:32:17;12.50;10.50;7.00
76304;PMS7003;65111;50.536;19.204;2022-11-15T05:34:44;10.00;9.00;7.00
76304;PMS7003;65111;50.536;19.204;2022-11-15T05:37:12;4.50;4.00;3.25
76304;PMS7003;65111;50.536;19.204;2022-11-15T05:39:39;2.00;2.00;1.50
76304;PMS7003;65111;50.536;19.204;2022-11-15T05:42:07;25.00;24.50;15.75
76304;PMS7003;65111;50.536;19.204;2022-11-15T05:44:35;15.25;15.25;10.50
76304;PMS7003;65111;50.536;19.204;2022-11-15T05:47:03;11.50;11.50;8.50
76304;PMS7003;65111;50.536;19.204;2022-11-15T05:49:33;12.50;10.00;6.25
76304;PMS7003;65111;50.536;19.204;2022-11-15T05:52:03;13.25;12.50;9.50
76304;PMS7003;65111;50.536;19.204;2022-11-15T05:54:31;9.50;9.00;6.25
76304;PMS7003;65111;50.536;19.204;2022-11-15T05:56:59;7.00;7.00;4.50
76304;PMS7003;65111;50.536;19.204;2022-11-15T05:59:25;4.00;3.00;0.50
76304;PMS7003;65111;50.536;19.204;2022-11-15T06:01:54;9.50;9.25;8.00
76304;PMS7003;65111;50.536;19.204;2022-11-15T06:04:20;10.00;10.00;8.00
76304;PMS7003;65111;50.536;19.204;2022-11-15T06:06:46;5.50;5.50;4.50
76304;PMS7003;65111;50.536;19.204;2022-11-15T06:09:12;4.50;3.00;3.00
76304;PMS7003;65111;50.536;19.204;2022-11-15T06:11:39;4.00;4.00;2.50
76304;PMS7003;65111;50.536;19.204;2022-11-15T06:14:05;4.00;2.50;1.50
76304;PMS7003;65111;50.536;19.204;2022-11-15T06:16:31;3.25;3.00;3.00
76304;PMS7003;65111;50.536;19.204;2022-11-15T06:18:57;3.75;3.50;3.00
76304;PMS7003;65111;50.536;19.204;2022-11-15T06:21:24;1.00;1.00;1.00
76304;PMS7003;65111;50.536;19.204;2022-11-15T06:23:52;6.00;6.00;3.75
76304;PMS7003;65111;50.536;19.204;2022-11-15T06:26:19;6.75;6.75;5.50
76304;PMS7003;65111;50.536;19.204;2022-11-15T06:28:45;5.50;5.00;3.75
76304;PMS7003;65111;50.536;19.204;2022-11-15T06:31:12;8.50;6.00;4.00
76304;PMS7003;65111;50.536;19.204;2022-11-15T06:33:38;6.00;4.00;3.50
76304;PMS7003;65111;50.536;19.204;2022-11-15T06:36:06;7.00;7.00;4.00
76304;PMS7003;65111;50.536;19.204;2022-11-15T06:38:35;6.50;6.50;5.50
76304;PMS7003;65111;50.536;19.204;2022-11-15T06:41:02;10.50;10.50;7.50
76304;PMS7003;65111;50.536;19.204;2022-11-15T06:43:31;10.75;10.00;6.50
76304;PMS7003;65111;50.536;19.204;2022-11-15T06:45:58;10.00;9.50;6.25
76304;PMS7003;65111;50.536;19.204;2022-11-15T06:48:25;8.50;6.00;4.00
76304;PMS7003;65111;50.536;19.204;2022-11-15T06:50:53;6.25;6.25;6.00
76304;PMS7003;65111;50.536;19.204;2022-11-15T06:53:21;6.25;6.25;4.00
76304;PMS7003;65111;50.536;19.204;2022-11-15T06:55:47;8.50;6.00;4.00
76304;PMS7003;65111;50.536;19.204;2022-11-15T06:58:14;12.25;9.75;7.25
76304;PMS7003;65111;50.536;19.204;2022-11-15T07:00:41;12.75;12.75;7.00
76304;PMS7003;65111;50.536;19.204;2022-11-15T07:03:08;13.25;12.25;8.75
76304;PMS7003;65111;50.536;19.204;2022-11-15T07:05:35;14.75;10.75;7.00
76304;PMS7003;65111;50.536;19.204;2022-11-15T07:08:01;10.50;10.50;7.00
76304;PMS7003;65111;50.536;19.204;2022-11-15T07:10:28;12.25;12.25;9.25
76304;PMS7003;65111;50.536;19.204;2022-11-15T07:12:55;22.50;19.00;12.25
76304;PMS7003;65111;50.536;19.204;2022-11-15T07:15:23;16.50;15.75;11.00
76304;PMS7003;65111;50.536;19.204;2022-11-15T07:17:50;17.50;17.50;13.00
76304;PMS7003;65111;50.536;19.204;2022-11-15T07:20:17;22.75;14.00;11.25
76304;PMS7003;65111;50.536;19.204;2022-11-15T07:22:44;17.25;14.25;10.00
76304;PMS7003;65111;50.536;19.204;2022-11-15T07:25:11;21.75;19.75;15.00
76304;PMS7003;65111;50.536;19.204;2022-11-15T07:27:38;22.75;21.50;13.00
76304;PMS7003;65111;50.536;19.204;2022-11-15T07:30:04;18.50;18.50;12.00
76304;PMS7003;65111;50.536;19.204;2022-11-15T07:32:32;18.50;17.00;12.25
76304;PMS7003;65111;50.536;19.204;2022-11-15T07:34:58;13.50;12.50;7.00
76304;PMS7003;65111;50.536;19.204;2022-11-15T07:37:24;13.25;13.25;9.75
76304;PMS7003;65111;50.536;19.204;2022-11-15T07:39:50;22.50;19.25;11.25
76304;PMS7003;65111;50.536;19.204;2022-11-15T07:42:17;21.25;17.00;11.25
76304;PMS7003;65111;50.536;19.204;2022-11-15T07:45:02;21.75;19.00;13.75
76304;PMS7003;65111;50.536;19.204;2022-11-15T07:47:28;16.00;14.75;11.50
76304;PMS7003;65111;50.536;19.204;2022-11-15T07:49:55;12.00;10.00;5.00
76304;PMS7003;65111;50.536;19.204;2022-11-15T07:52:21;18.00;17.00;12.00
76304;PMS7003;65111;50.536;19.204;2022-11-15T07:54:47;17.00;13.75;10.25
76304;PMS7003;65111;50.536;19.204;2022-11-15T07:57:14;15.00;13.25;9.00
76304;PMS7003;65111;50.536;19.204;2022-11-15T07:59:40;22.75;17.25;10.75
76304;PMS7003;65111;50.536;19.204;2022-11-15T08:02:08;19.75;16.50;12.00
76304;PMS7003;65111;50.536;19.204;2022-11-15T08:04:35;23.00;19.75;12.25
76304;PMS7003;65111;50.536;19.204;2022-11-15T08:07:01;20.00;16.00;10.00
76304;PMS7003;65111;50.536;19.204;2022-11-15T08:09:27;26.00;20.60;15.80
76304;PMS7003;65111;50.536;19.204;2022-11-15T08:11:54;16.40;16.40;10.00
76304;PMS7003;65111;50.536;19.204;2022-11-15T08:14:20;16.60;16.00;12.40
76304;PMS7003;65111;50.536;19.204;2022-11-15T08:16:47;20.40;19.00;12.60
76304;PMS7003;65111;50.536;19.204;2022-11-15T08:19:13;22.20;17.40;13.00
76304;PMS7003;65111;50.536;19.204;2022-11-15T08:21:40;16.20;16.20;11.20
76304;PMS7003;65111;50.536;19.204;2022-11-15T08:24:07;16.60;16.60;11.20
76304;PMS7003;65111;50.536;19.204;2022-11-15T08:26:35;16.00;15.00;12.20
76304;PMS7003;65111;50.536;19.204;2022-11-15T08:29:02;17.40;16.60;12.00
76304;PMS7003;65111;50.536;19.204;2022-11-15T08:31:28;19.40;18.40;12.40
76304;PMS7003;65111;50.536;19.204;2022-11-15T08:33:54;18.40;18.40;13.80
76304;PMS7003;65111;50.536;19.204;2022-11-15T08:39:09;15.20;15.00;11.60
76304;PMS7003;65111;50.536;19.204;2022-11-15T08:41:37;17.20;16.00;11.60
76304;PMS7003;65111;50.536;19.204;2022-11-15T08:44:04;20.00;17.20;12.40
76304;PMS7003;65111;50.536;19.204;2022-11-15T08:46:30;14.00;14.00;9.00
76304;PMS7003;65111;50.536;19.204;2022-11-15T08:48:56;15.40;14.20;10.20
76304;PMS7003;65111;50.536;19.204;2022-11-15T08:51:23;13.20;12.60;10.00
76304;PMS7003;65111;50.536;19.204;2022-11-15T08:53:49;12.20;11.20;7.80
76304;PMS7003;65111;50.536;19.204;2022-11-15T08:56:15;14.20;14.20;9.20
76304;PMS7003;65111;50.536;19.204;2022-11-15T08:58:42;16.20;15.00;10.60
76304;PMS7003;65111;50.536;19.204;2022-11-15T09:01:14;16.00;16.00;10.20
76304;PMS7003;65111;50.536;19.204;2022-11-15T09:03:43;11.00;10.00;8.00
76304;PMS7003;65111;50.536;19.204;2022-11-15T09:06:09;18.40;17.40;12.00
76304;PMS7003;65111;50.536;19.204;2022-11-15T09:08:36;18.20;16.00;11.00
76304;PMS7003;65111;50.536;19.204;2022-11-15T09:11:04;17.60;15.40;10.60
76304;PMS7003;65111;50.536;19.204;2022-11-15T09:13:32;18.40;17.40;12.00
76304;PMS7003;65111;50.536;19.204;2022-11-15T09:15:59;16.60;16.20;10.20
76304;PMS7003;65111;50.536;19.204;2022-11-15T09:18:26;14.80;14.00;9.40
76304;PMS7003;65111;50.536;19.204;2022-11-15T09:20:56;15.60;15.40;10.00
76304;PMS7003;65111;50.536;19.204;2022-11-15T09:23:24;16.20;16.20;12.00
76304;PMS7003;65111;50.536;19.204;2022-11-15T09:25:51;14.40;14.40;8.80
76304;PMS7003;65111;50.536;19.204;2022-11-15T09:28:20;14.60;14.60;10.40
76304;PMS7003;65111;50.536;19.204;2022-11-15T09:30:46;15.20;14.80;10.80
76304;PMS7003;65111;50.536;19.204;2022-11-15T09:33:13;17.20;13.80;10.20
76304;PMS7003;65111;50.536;19.204;2022-11-15T09:35:39;11.40;11.00;8.20
76304;PMS7003;65111;50.536;19.204;2022-11-15T09:38:06;15.20;14.60;9.20
76304;PMS7003;65111;50.536;19.204;2022-11-15T09:40:32;17.60;16.00;11.60
76304;PMS7003;65111;50.536;19.204;2022-11-15T09:46:08;11.80;11.80;9.20
76304;PMS7003;65111;50.536;19.204;2022-11-15T09:51:02;11.40;11.40;7.40
76304;PMS7003;65111;50.536;19.204;2022-11-15T09:53:39;12.60;12.00;8.60
76304;PMS7003;65111;50.536;19.204;2022-11-15T09:56:19;14.60;14.20;9.80
76304;PMS7003;65111;50.536;19.204;2022-11-15T09:58:40;10.60;10.60;7.60
76304;PMS7003;65111;50.536;19.204;2022-11-15T10:01:37;11.40;10.20;7.00
76304;PMS7003;65111;50.536;19.204;2022-11-15T10:04:04;17.20;15.40;11.40
76304;PMS7003;65111;50.536;19.204;2022-11-15T10:06:31;15.00;14.80;9.20
76304;PMS7003;65111;50.536;19.204;2022-11-15T10:09:02;15.60;14.20;10.60
76304;PMS7003;65111;50.536;19.204;2022-11-15T10:14:18;12.80;12.40;8.40
76304;PMS7003;65111;50.536;19.204;2022-11-15T10:22:31;13.00;12.40;8.80
76304;PMS7003;65111;50.536;19.204;2022-11-15T10:25:17;11.60;11.60;8.00
76304;PMS7003;65111;50.536;19.204;2022-11-15T10:27:51;14.00;13.60;10.20
76304;PMS7003;65111;50.536;19.204;2022-11-15T10:30:22;13.40;13.00;10.00
76304;PMS7003;65111;50.536;19.204;2022-11-15T10:32:49;11.60;11.40;8.80
76304;PMS7003;65111;50.536;19.204;2022-11-15T10:35:21;14.20;12.20;9.00
76304;PMS7003;65111;50.536;19.204;2022-11-15T10:37:46;15.60;14.40;9.80
76304;PMS7003;65111;50.536;19.204;2022-11-15T10:40:18;16.00;15.80;10.40
76304;PMS7003;65111;50.536;19.204;2022-11-15T10:43:05;15.60;12.00;8.20
76304;PMS7003;65111;50.536;19.204;2022-11-15T10:45:26;14.80;12.40;9.00
76304;PMS7003;65111;50.536;19.204;2022-11-15T10:47:59;16.60;14.80;9.20
76304;PMS7003;65111;50.536;19.204;2022-11-15T10:50:41;13.60;13.40;9.60
76304;PMS7003;65111;50.536;19.204;2022-11-15T10:53:21;16.20;16.20;11.00
76304;PMS7003;65111;50.536;19.204;2022-11-15T10:55:50;20.20;20.00;14.20
76304;PMS7003;65111;50.536;19.204;2022-11-15T10:58:20;19.50;19.25;11.75
76304;PMS7003;65111;50.536;19.204;2022-11-15T11:00:49;17.20;14.40;9.20
76304;PMS7003;65111;50.536;19.204;2022-11-15T11:06:17;25.80;25.20;14.60
76304;PMS7003;65111;50.536;19.204;2022-11-15T11:11:43;21.00;20.20;14.60
76304;PMS7003;65111;50.536;19.204;2022-11-15T11:14:19;17.20;16.60;12.80
76304;PMS7003;65111;50.536;19.204;2022-11-15T11:19:43;22.60;19.20;12.60
76304;PMS7003;65111;50.536;19.204;2022-11-15T11:22:16;26.40;24.60;15.60
76304;PMS7003;65111;50.536;19.204;2022-11-15T11:36:40;29.60;28.00;18.20
76304;PMS7003;65111;50.536;19.204;2022-11-15T11:42:09;27.40;24.20;17.80
76304;PMS7003;65111;50.536;19.204;2022-11-15T11:47:24;26.00;24.20;16.00
76304;PMS7003;65111;50.536;19.204;2022-11-15T11:55:37;26.00;23.00;15.40
76304;PMS7003;65111;50.536;19.204;2022-11-15T12:03:43;29.20;27.60;19.40
76304;PMS7003;65111;50.536;19.204;2022-11-15T12:06:21;23.40;22.00;15.00
76304;PMS7003;65111;50.536;19.204;2022-11-15T12:09:11;19.80;19.00;13.80
76304;PMS7003;65111;50.536;19.204;2022-11-15T12:14:33;22.40;21.60;14.00
76304;PMS7003;65111;50.536;19.204;2022-11-15T12:17:01;27.00;24.00;16.60
76304;PMS7003;65111;50.536;19.204;2022-11-15T12:19:29;23.00;19.40;14.00
76304;PMS7003;65111;50.536;19.204;2022-11-15T12:24:49;15.40;14.00;10.00
76304;PMS7003;65111;50.536;19.204;2022-11-15T12:27:30;20.80;18.80;13.80
76304;PMS7003;65111;50.536;19.204;2022-11-15T12:29:56;26.60;25.80;15.80
76304;PMS7003;65111;50.536;19.204;2022-11-15T12:32:26;20.80;15.40;11.80
76304;PMS7003;65111;50.536;19.204;2022-11-15T12:34:54;17.00;17.00;12.60
76304;PMS7003;65111;50.536;19.204;2022-11-15T12:42:56;16.00;15.40;11.00
76304;PMS7003;65111;50.536;19.204;2022-11-15T12:45:30;17.40;16.60;10.80
76304;PMS7003;65111;50.536;19.204;2022-11-15T13:06:52;21.40;19.60;12.20
76304;PMS7003;65111;50.536;19.204;2022-11-15T13:14:59;16.20;14.40;11.00
76304;PMS7003;65111;50.536;19.204;2022-11-15T13:17:29;19.00;17.80;12.80
76304;PMS7003;65111;50.536;19.204;2022-11-15T13:28:11;14.75;12.00;7.00
76304;PMS7003;65111;50.536;19.204;2022-11-15T13:30:40;12.50;11.50;8.00
76304;PMS7003;65111;50.536;19.204;2022-11-15T13:33:15;9.50;9.50;6.00
76304;PMS7003;65111;50.536;19.204;2022-11-15T13:36:02;11.25;10.50;7.25
76304;PMS7003;65111;50.536;19.204;2022-11-15T13:38:32;9.25;9.25;6.75
76304;PMS7003;65111;50.536;19.204;2022-11-15T13:41:10;7.50;6.75;5.50
76304;PMS7003;65111;50.536;19.204;2022-11-15T13:43:39;9.75;6.25;5.00
76304;PMS7003;65111;50.536;19.204;2022-11-15T13:48:41;10.75;7.75;5.00
76304;PMS7003;65111;50.536;19.204;2022-11-15T13:54:03;10.50;10.00;7.00
76304;PMS7003;65111;50.536;19.204;2022-11-15T13:56:37;10.25;10.25;6.50
76304;PMS7003;65111;50.536;19.204;2022-11-15T13:59:14;6.00;6.00;5.00
76304;PMS7003;65111;50.536;19.204;2022-11-15T14:01:46;6.75;6.00;5.00
76304;PMS7003;65111;50.536;19.204;2022-11-15T14:04:13;5.00;4.50;3.25
76304;PMS7003;65111;50.536;19.204;2022-11-15T14:06:47;8.50;6.25;5.00
76304;PMS7003;65111;50.536;19.204;2022-11-15T14:09:18;5.75;5.00;3.25
76304;PMS7003;65111;50.536;19.204;2022-11-15T14:11:56;7.00;7.00;5.00
76304;PMS7003;65111;50.536;19.204;2022-11-15T14:14:24;8.75;8.75;6.50
76304;PMS7003;65111;50.536;19.204;2022-11-15T14:16:52;5.00;4.50;3.75
76304;PMS7003;65111;50.536;19.204;2022-11-15T14:24:37;8.50;6.00;4.25
76304;PMS7003;65111;50.536;19.204;2022-11-15T14:27:17;3.00;3.00;1.75
76304;PMS7003;65111;50.536;19.204;2022-11-15T14:29:48;8.00;7.00;4.25
76304;PMS7003;65111;50.536;19.204;2022-11-15T14:32:17;8.00;6.00;5.00
76304;PMS7003;65111;50.536;19.204;2022-11-15T14:34:45;5.25;5.25;4.50
76304;PMS7003;65111;50.536;19.204;2022-11-15T14:37:19;4.50;3.50;2.00
76304;PMS7003;65111;50.536;19.204;2022-11-15T14:39:51;9.00;8.00;5.75
76304;PMS7003;65111;50.536;19.204;2022-11-15T14:42:18;5.00;5.00;4.25
76304;PMS7003;65111;50.536;19.204;2022-11-15T14:44:45;9.00;8.00;5.00
76304;PMS7003;65111;50.536;19.204;2022-11-15T14:47:12;9.00;9.00;6.00
76304;PMS7003;65111;50.536;19.204;2022-11-15T14:49:38;8.50;7.75;5.00
76304;PMS7003;65111;50.536;19.204;2022-11-15T14:52:19;7.75;7.00;3.00
76304;PMS7003;65111;50.536;19.204;2022-11-15T14:54:47;6.25;6.25;5.00
76304;PMS7003;65111;50.536;19.204;2022-11-15T14:57:13;11.75;8.00;5.75
76304;PMS7003;65111;50.536;19.204;2022-11-15T14:59:40;12.50;10.75;8.00
76304;PMS7003;65111;50.536;19.204;2022-11-15T15:02:16;8.75;6.75;4.75
76304;PMS7003;65111;50.536;19.204;2022-11-15T15:04:45;11.50;11.50;6.75
76304;PMS7003;65111;50.536;19.204;2022-11-15T15:07:12;15.25;12.25;8.50
76304;PMS7003;65111;50.536;19.204;2022-11-15T15:09:38;5.00;5.00;4.00
76304;PMS7003;65111;50.536;19.204;2022-11-15T15:12:05;12.00;9.00;6.25
76304;PMS7003;65111;50.536;19.204;2022-11-15T15:14:43;11.25;9.00;7.00
76304;PMS7003;65111;50.536;19.204;2022-11-15T15:17:10;7.25;6.25;4.00
76304;PMS7003;65111;50.536;19.204;2022-11-15T15:19:37;5.00;5.00;4.50
76304;PMS7003;65111;50.536;19.204;2022-11-15T15:22:03;9.00;9.00;5.00
76304;PMS7003;65111;50.536;19.204;2022-11-15T15:24:30;15.00;11.00;7.00
76304;PMS7003;65111;50.536;19.204;2022-11-15T15:26:56;10.75;10.75;7.50
76304;PMS7003;65111;50.536;19.204;2022-11-15T15:29:23;14.75;14.75;7.75
76304;PMS7003;65111;50.536;19.204;2022-11-15T15:31:49;32.50;32.50;21.25
76304;PMS7003;65111;50.536;19.204;2022-11-15T15:34:15;38.50;31.25;18.50
76304;PMS7003;65111;50.536;19.204;2022-11-15T15:36:41;32.25;29.50;18.00
76304;PMS7003;65111;50.536;19.204;2022-11-15T15:39:08;38.50;32.25;19.25
76304;PMS7003;65111;50.536;19.204;2022-11-15T15:41:37;30.25;24.50;16.50
76304;PMS7003;65111;50.536;19.204;2022-11-15T15:44:03;29.00;24.50;17.50
76304;PMS7003;65111;50.536;19.204;2022-11-15T15:46:29;35.25;28.50;15.50
76304;PMS7003;65111;50.536;19.204;2022-11-15T15:48:56;44.25;38.75;21.00
76304;PMS7003;65111;50.536;19.204;2022-11-15T15:51:22;54.50;46.25;30.50
76304;PMS7003;65111;50.536;19.204;2022-11-15T15:53:48;44.75;41.75;24.75
76304;PMS7003;65111;50.536;19.204;2022-11-15T15:56:16;29.50;24.00;15.50
76304;PMS7003;65111;50.536;19.204;2022-11-15T15:58:42;22.75;21.00;15.25
76304;PMS7003;65111;50.536;19.204;2022-11-15T16:01:08;18.75;17.75;11.00
76304;PMS7003;65111;50.536;19.204;2022-11-15T16:03:35;19.50;16.25;9.00
76304;PMS7003;65111;50.536;19.204;2022-11-15T16:06:01;19.00;17.00;10.00
76304;PMS7003;65111;50.536;19.204;2022-11-15T16:08:29;28.00;25.00;15.25
76304;PMS7003;65111;50.536;19.204;2022-11-15T16:10:56;23.00;22.25;13.50
76304;PMS7003;65111;50.536;19.204;2022-11-15T16:13:22;26.50;20.00;11.50
76304;PMS7003;65111;50.536;19.204;2022-11-15T16:15:50;39.25;32.00;19.75
76304;PMS7003;65111;50.536;19.204;2022-11-15T16:18:18;31.75;30.00;18.50
76304;PMS7003;65111;50.536;19.204;2022-11-15T16:20:46;22.25;20.00;10.50
76304;PMS7003;65111;50.536;19.204;2022-11-15T16:23:18;23.50;22.00;11.50
76304;PMS7003;65111;50.536;19.204;2022-11-15T16:25:52;21.00;18.00;12.25
76304;PMS7003;65111;50.536;19.204;2022-11-15T16:28:28;18.00;15.75;9.00
76304;PMS7003;65111;50.536;19.204;2022-11-15T16:31:02;30.00;26.25;15.50